Kezdőlap
METAR-TAF:

METAR-TAF

Repülőterek :

Szunani nemzetközi repülőtér

Phenjan, Észak-Korea

földrajzi szélesség: 39-02N, földrajzi hosszúság: 125-47E, magasság: 36 m

METAR: hiányzik

Idő: 19:22 (10:22 UTC)

Előrejelzés

A jelentés 6 órával és 2 perccel ezelõtt készült, 04:20 UTC
Az előrejelzés 23-én 06 óra UTC és 24-én 06 óra UTC között érvényes
Keleti szél 10 kt
Látótávolság 10 km, vagy több
Szakadozott felhőzet 2700 lábon
23-én 15 óra UTC és 24-én 01 óra UTC között ideiglenes
Látótávolság: 6000 m
Borult 2300 lábon
enyhe esõ,

TAF: ZKPY 230420Z 2306/2406 09005MPS 9999 BKN027 TX21/2306Z TN12/2321Z TEMPO 2315/2401 6000 -RA OVC023

Meteorológiai megfigyelések és előrejelzések több, mint 4000 repülőtéren (METAR és TAF jelentéseket).

A térképen piros és sárga pontok jelzik az elérhető meteorológiai állomásokat.

Mozgassa az egeret a pont fölött, hogy megjelenjen az állomás neve.

Azután kattintson az időjárási megfigyelések és előrejelzések megtekintéséhez.

A térkép megváltoztatása: kattintson a fekete keresztel jelölt zöld gombra ráközelítéshez, a vonallal jelölt zöld gombra távolításhoz, vagy a zöld nyilakra a szomszédos térképek eléréséhez.


METAR-TAF: